Time;durP1;ratioP1;P1;durP2;ratioP2;P2;SDS_P1;SDS_P2;PMS_P1;PMS_P2;Temp;Humidity;BMP_temperature;BMP_pressure;BME280_temperature;BME280_humidity;BME280_pressure;Samples;Min_cycle;Max_cycle;Signal;HPM_P1;HPM_P2
2022/01/16 00:02:09;;;;;;;2.50;2.30;;;15.80;55.70;16.90;101492.00;;;;5028259;28;20645;-46
2022/01/16 00:04:28;;;;;;;2.70;2.50;;;15.80;55.40;16.90;101482.00;;;;5028141;28;20256;-49
2022/01/16 00:06:54;;;;;;;2.77;2.57;;;15.70;55.30;16.90;101487.00;;;;5028059;28;20187;-47
2022/01/16 00:09:19;;;;;;;2.60;2.40;;;15.70;55.40;16.80;101507.00;;;;5028211;28;20210;-47
2022/01/16 00:11:45;;;;;;;2.87;2.50;;;15.70;55.70;16.80;101515.00;;;;5027581;28;20205;-47
2022/01/16 00:14:11;;;;;;;2.73;2.53;;;15.70;55.50;16.80;101508.00;;;;5047567;28;20182;-48
2022/01/16 00:16:38;;;;;;;2.70;2.50;;;15.60;55.50;16.80;101497.00;;;;5053596;28;20225;-47
2022/01/16 00:19:04;;;;;;;3.10;2.80;;;15.70;55.40;16.80;101500.00;;;;5048238;28;20175;-48
2022/01/16 00:21:32;;;;;;;2.77;2.57;;;15.60;55.40;16.80;101507.00;;;;5047806;28;20185;-49
2022/01/16 00:23:58;;;;;;;2.70;2.50;;;15.70;55.60;16.70;101505.00;;;;5046956;28;20185;-50
2022/01/16 00:26:24;;;;;;;2.63;2.43;;;15.60;55.60;16.70;101500.00;;;;5062041;28;20186;-51
2022/01/16 00:28:51;;;;;;;2.60;2.40;;;15.60;55.70;16.70;101497.00;;;;5062907;28;20224;-49
2022/01/16 00:31:18;;;;;;;2.57;2.37;;;15.60;55.70;16.70;101503.00;;;;5049867;28;20253;-46
2022/01/16 00:33:44;;;;;;;2.60;2.40;;;15.60;55.90;16.70;101495.00;;;;5050340;28;20170;-49
2022/01/16 00:36:11;;;;;;;3.57;2.77;;;15.50;55.70;16.70;101428.00;;;;5049472;28;20205;-46
2022/01/16 00:38:43;;;;;;;2.50;2.30;;;15.50;55.70;16.40;101504.00;;;;5050561;28;20205;-48
2022/01/16 00:41:09;;;;;;;2.50;2.30;;;15.50;56.00;16.70;101512.00;;;;5036871;28;20560;-48
2022/01/16 00:43:34;;;;;;;2.67;2.47;;;15.50;55.80;16.70;101499.00;;;;5026712;28;20178;-48
2022/01/16 00:46:00;;;;;;;2.53;2.33;;;15.50;55.70;16.60;101504.00;;;;5027560;28;20669;-47
2022/01/16 00:48:26;;;;;;;2.50;2.30;;;15.50;55.60;16.60;101517.00;;;;5027646;28;20195;-48
2022/01/16 00:50:51;;;;;;;2.63;2.43;;;15.40;55.50;16.60;101500.00;;;;5027431;28;20190;-50
2022/01/16 00:53:17;;;;;;;2.73;2.53;;;15.40;55.90;16.60;101500.00;;;;5027710;28;20669;-46
2022/01/16 00:55:43;;;;;;;2.60;2.40;;;15.40;55.90;16.60;101505.00;;;;5027525;28;20201;-48
2022/01/16 00:58:08;;;;;;;2.50;2.30;;;15.40;55.80;16.50;101507.00;;;;5027839;28;20556;-48
2022/01/16 01:00:34;;;;;;;2.60;2.40;;;15.40;55.80;16.50;101513.00;;;;5025842;28;20179;-48
2022/01/16 01:03:00;;;;;;;2.60;2.40;;;15.30;55.70;16.50;101491.00;;;;5027171;28;20178;-48
2022/01/16 01:05:26;;;;;;;2.67;2.47;;;15.30;55.70;16.50;101501.00;;;;5027450;28;20641;-48
2022/01/16 01:07:52;;;;;;;2.70;2.50;;;15.30;55.90;16.50;101509.00;;;;5027453;28;20224;-50
2022/01/16 01:10:19;;;;;;;2.60;2.40;;;15.30;56.00;16.40;101516.00;;;;5027738;28;20235;-47
2022/01/16 01:12:56;;;;;;;2.70;2.50;;;15.30;55.80;16.50;101526.00;;;;5026950;28;20606;-47
2022/01/16 01:15:29;;;;;;;2.50;2.30;;;15.20;55.60;16.40;101524.00;;;;5027016;28;20262;-47
2022/01/16 01:17:55;;;;;;;2.50;2.30;;;15.20;56.00;16.40;101530.00;;;;5027598;28;20161;-48
2022/01/16 01:20:21;;;;;;;2.43;2.20;;;15.20;56.20;16.40;101517.00;;;;5026409;28;20163;-48
2022/01/16 01:22:49;;;;;;;2.57;2.30;;;15.20;56.20;16.30;101522.00;;;;5027204;28;20551;-47
2022/01/16 01:25:16;;;;;;;3.00;2.40;;;15.10;56.50;16.30;101530.00;;;;5032490;28;20167;-49
2022/01/16 01:27:41;;;;;;;2.60;2.40;;;15.10;56.20;16.30;101549.00;;;;5019970;28;20282;-48
2022/01/16 01:30:18;;;;;;;2.70;2.50;;;15.10;56.10;16.30;101543.00;;;;5035771;28;20202;-49
2022/01/16 01:32:45;;;;;;;2.60;2.40;;;15.10;56.10;16.30;101536.00;;;;5034725;28;20243;-48
2022/01/16 01:35:13;;;;;;;2.50;2.30;;;15.10;55.90;16.30;101505.00;;;;5032671;28;20183;-49
2022/01/16 01:37:39;;;;;;;2.60;2.40;;;15.10;56.10;16.30;101472.00;;;;5032155;28;20182;-50
2022/01/16 01:40:08;;;;;;;2.60;2.33;;;15.00;56.20;16.30;101470.00;;;;5029812;28;20231;-50
2022/01/16 01:42:43;;;;;;;2.80;2.60;;;15.00;56.10;16.30;101476.00;;;;5027256;28;20685;-48
2022/01/16 01:51:04;;;;;;;2.77;2.57;;;15.00;55.70;16.20;101513.00;;;;5007576;28;20592;-46
2022/01/16 01:53:29;;;;;;;3.13;2.60;;;15.00;56.10;16.20;101526.00;;;;5030963;28;20619;-50
2022/01/16 01:55:55;;;;;;;2.27;2.13;;;15.00;56.10;16.10;101539.00;;;;5029875;28;20195;-48
2022/01/16 01:58:21;;;;;;;2.50;2.30;;;15.00;56.20;16.10;101538.00;;;;5031270;28;20209;-49
2022/01/16 02:00:47;;;;;;;2.63;2.43;;;15.00;55.90;16.10;101533.00;;;;5030806;28;20179;-47
2022/01/16 02:05:44;;;;;;;2.50;2.30;;;14.90;55.80;16.10;101550.00;;;;5031205;28;20195;-47
2022/01/16 02:08:09;;;;;;;2.33;2.20;;;14.90;55.80;16.10;101548.00;;;;5030783;28;20573;-49
2022/01/16 02:10:36;;;;;;;2.73;2.50;;;14.90;55.90;16.10;101557.00;;;;5029269;28;20538;-49
2022/01/16 02:13:05;;;;;;;2.60;2.40;;;14.90;56.30;15.80;101558.00;;;;5045690;28;20170;-49
2022/01/16 02:32:24;;;;;;;2.37;2.20;;;14.80;56.00;16.00;101570.00;;;;5032434;28;20159;-48
2022/01/16 02:34:46;;;;;;;2.67;2.47;;;14.80;56.00;16.00;101563.00;;;;5033056;28;20182;-46
2022/01/16 02:37:15;;;;;;;2.60;2.40;;;14.70;56.00;15.90;101567.00;;;;5036501;28;20187;-48
2022/01/16 02:39:45;;;;;;;2.80;2.60;;;14.70;56.00;15.90;101558.00;;;;5028772;28;20171;-49
2022/01/16 02:42:12;;;;;;;2.70;2.50;;;14.70;55.90;15.90;101542.00;;;;5029956;28;20509;-48
2022/01/16 02:44:48;;;;;;;2.63;2.43;;;14.70;56.00;15.90;101539.00;;;;5028831;28;20228;-48
2022/01/16 02:47:17;;;;;;;2.50;2.30;;;14.70;56.10;15.90;101537.00;;;;5028612;28;20190;-48
2022/01/16 02:49:47;;;;;;;2.77;2.57;;;14.60;56.10;15.90;101533.00;;;;5030402;28;20187;-48
2022/01/16 02:52:15;;;;;;;2.43;2.30;;;14.60;56.20;15.80;101534.00;;;;5029491;28;20171;-49
2022/01/16 02:54:42;;;;;;;2.50;2.30;;;14.60;56.20;15.80;101515.00;;;;5040698;28;20159;-51
2022/01/16 02:57:15;;;;;;;2.70;2.50;;;14.60;56.10;15.80;101516.00;;;;5053887;28;20301;-48
2022/01/16 02:59:48;;;;;;;2.40;2.20;;;14.60;55.90;15.80;101500.00;;;;5036450;28;20175;-48
2022/01/16 03:02:14;;;;;;;2.70;2.50;;;14.60;56.10;15.80;101494.00;;;;5029989;28;20250;-48
2022/01/16 03:04:39;;;;;;;2.73;2.53;;;14.60;56.10;15.80;101502.00;;;;5029618;28;20236;-47
2022/01/16 03:07:05;;;;;;;2.97;2.77;;;14.60;56.20;15.80;101485.00;;;;5030497;28;20198;-47
2022/01/16 03:09:51;;;;;;;3.00;2.80;;;14.60;56.10;15.80;101471.00;;;;5034371;28;20195;-49
2022/01/16 03:12:17;;;;;;;2.63;2.43;;;14.60;56.10;15.80;101466.00;;;;5038353;28;20217;-49
2022/01/16 03:14:42;;;;;;;3.13;2.50;;;14.60;56.50;15.70;101300.00;;;;5029275;28;20201;-47
2022/01/16 03:17:10;;;;;;;2.80;2.60;;;14.60;56.20;15.70;101462.00;;;;5029541;28;20796;-49
2022/01/16 03:22:20;;;;;;;2.50;2.30;;;14.50;55.90;15.70;101455.00;;;;5029293;28;20166;-48
2022/01/16 03:24:45;;;;;;;2.60;2.40;;;14.50;56.00;15.70;101455.00;;;;5029923;28;20187;-47
2022/01/16 03:27:18;;;;;;;2.83;2.40;;;14.50;56.10;15.70;101465.00;;;;5029797;28;20751;-47
2022/01/16 03:29:49;;;;;;;2.70;2.50;;;14.50;56.10;15.60;101468.00;;;;5029271;28;20186;-48
2022/01/16 03:32:17;;;;;;;2.87;2.67;;;14.50;56.10;15.60;101450.00;;;;5028445;28;20159;-46
2022/01/16 03:34:42;;;;;;;2.80;2.60;;;14.40;56.40;15.60;101478.00;;;;5036186;28;20210;-50
2022/01/16 03:37:08;;;;;;;2.60;2.40;;;14.50;56.20;15.70;101478.00;;;;5055205;28;20171;-50
2022/01/16 03:39:34;;;;;;;2.70;2.50;;;14.40;56.40;15.70;101480.00;;;;5048467;28;20183;-48
2022/01/16 03:42:01;;;;;;;2.73;2.53;;;14.40;56.10;15.70;101477.00;;;;5028804;28;20190;-50
2022/01/16 03:44:27;;;;;;;2.47;2.30;;;14.40;56.00;15.60;101470.00;;;;5044198;28;20175;-48
2022/01/16 03:46:52;;;;;;;2.73;2.53;;;14.40;56.00;15.60;101458.00;;;;5039731;28;20238;-47
2022/01/16 03:49:21;;;;;;;2.60;2.40;;;14.40;56.20;15.50;101462.00;;;;5030421;28;20544;-47
2022/01/16 03:51:48;;;;;;;2.83;2.63;;;14.30;56.10;15.50;101463.00;;;;5035416;28;20183;-46
2022/01/16 03:54:16;;;;;;;2.80;2.60;;;14.30;56.30;15.60;101463.00;;;;5029334;28;20155;-47
2022/01/16 03:56:42;;;;;;;2.60;2.40;;;14.30;56.50;15.50;101462.00;;;;5029348;28;20240;-49
2022/01/16 03:59:08;;;;;;;3.00;2.80;;;14.30;56.40;15.50;101479.00;;;;5029334;28;20585;-48
2022/01/16 04:01:34;;;;;;;2.53;2.33;;;14.30;56.30;15.50;101480.00;;;;5028789;28;20167;-50
2022/01/16 04:04:00;;;;;;;2.80;2.60;;;14.30;56.40;15.50;101475.00;;;;5028390;28;20182;-48
2022/01/16 04:06:25;;;;;;;2.70;2.50;;;14.30;56.30;15.50;101469.00;;;;5028364;28;20703;-48
2022/01/16 04:08:55;;;;;;;3.10;2.80;;;14.30;56.30;15.50;101472.00;;;;5028359;28;20210;-48
2022/01/16 04:11:22;;;;;;;3.93;2.80;;;14.30;56.30;15.50;101473.00;;;;5035960;28;20163;-50
2022/01/16 04:13:51;;;;;;;4.20;2.70;;;14.20;56.40;15.50;101478.00;;;;5053357;28;20178;-48
2022/01/16 04:16:18;;;;;;;3.00;2.53;;;14.20;56.70;15.40;101480.00;;;;5029520;28;20191;-48
2022/01/16 04:18:43;;;;;;;7.47;3.00;;;14.20;56.70;15.40;101476.00;;;;5031068;28;20194;-48
2022/01/16 04:21:09;;;;;;;4.50;3.00;;;14.30;56.30;15.40;101473.00;;;;5029915;28;20186;-49
2022/01/16 04:23:35;;;;;;;3.13;2.80;;;14.30;56.50;15.40;101473.00;;;;5029449;28;20693;-49
2022/01/16 04:26:00;;;;;;;3.97;2.80;;;14.20;56.60;15.40;101480.00;;;;5028484;28;20205;-49
2022/01/16 04:28:26;;;;;;;4.83;2.90;;;14.20;56.50;15.40;101489.00;;;;5029559;28;20190;-48
2022/01/16 04:30:52;;;;;;;4.37;3.00;;;14.30;56.60;15.40;101492.00;;;;5027544;28;20734;-47
2022/01/16 04:33:18;;;;;;;7.63;3.50;;;14.30;56.50;15.40;101494.00;;;;5027910;28;20277;-47
2022/01/16 04:35:44;;;;;;;5.13;3.70;;;14.30;56.30;15.40;101500.00;;;;5026410;28;20248;-47
2022/01/16 04:38:10;;;;;;;4.43;4.03;;;14.30;56.20;15.40;101490.00;;;;5028179;28;20260;-47
2022/01/16 04:40:45;;;;;;;4.70;4.30;;;14.30;56.30;15.40;101490.00;;;;5028018;28;20178;-45
2022/01/16 04:45:57;;;;;;;6.67;5.13;;;14.30;56.40;15.40;101492.00;;;;5026917;28;20229;-49
2022/01/16 04:48:23;;;;;;;6.07;5.47;;;14.30;55.90;15.40;101482.00;;;;5028170;28;20215;-49
2022/01/16 04:50:48;;;;;;;6.40;4.80;;;14.20;55.70;15.30;101477.00;;;;5027876;28;20590;-47
2022/01/16 04:53:14;;;;;;;8.27;5.40;;;14.20;55.70;15.30;101473.00;;;;5028190;28;20171;-46
2022/01/16 04:55:40;;;;;;;8.83;5.10;;;14.40;55.70;15.40;101472.00;;;;5027186;28;20222;-47
2022/01/16 04:58:05;;;;;;;6.23;4.97;;;14.60;55.50;15.40;101483.00;;;;5028035;28;20182;-47
2022/01/16 05:00:32;;;;;;;6.07;4.73;;;14.80;55.00;15.60;101486.00;;;;5028041;28;20194;-47
2022/01/16 05:02:58;;;;;;;5.80;5.20;;;15.20;54.80;15.70;101483.00;;;;5028031;28;20545;-45
2022/01/16 05:05:24;;;;;;;5.30;4.80;;;15.50;54.30;15.90;101478.00;;;;5027624;28;20171;-45
2022/01/16 05:07:49;;;;;;;6.43;5.03;;;15.80;53.70;16.10;101484.00;;;;5028166;28;20297;-47
2022/01/16 05:10:15;;;;;;;13.27;5.03;;;16.10;53.50;16.30;101476.00;;;;5027781;28;20214;-48
2022/01/16 05:12:44;;;;;;;15.93;4.70;;;16.40;53.50;16.40;101488.00;;;;5027677;28;20179;-47
2022/01/16 05:17:55;;;;;;;7.87;4.70;;;16.60;53.20;16.70;101474.00;;;;5027944;28;20173;-47
2022/01/16 05:20:20;;;;;;;7.70;4.30;;;16.70;53.10;16.60;101475.00;;;;5027827;28;20410;-45
2022/01/16 05:22:46;;;;;;;5.87;4.90;;;16.80;53.20;16.90;101455.00;;;;5027570;28;20171;-47
2022/01/16 05:25:14;;;;;;;7.93;4.90;;;16.90;53.10;17.00;101459.00;;;;5027831;28;20171;-48
2022/01/16 05:27:40;;;;;;;7.80;4.70;;;17.00;53.10;17.10;101463.00;;;;5027616;28;20681;-47
2022/01/16 05:30:07;;;;;;;5.03;4.40;;;17.00;53.10;17.20;101459.00;;;;5026213;28;20202;-48
2022/01/16 05:32:33;;;;;;;5.40;4.50;;;17.00;53.20;17.30;101459.00;;;;5027409;28;20159;-48
2022/01/16 05:34:59;;;;;;;5.90;4.70;;;17.00;53.30;17.30;101457.00;;;;5027694;28;20661;-47
2022/01/16 05:37:24;;;;;;;5.87;4.93;;;17.00;53.40;17.30;101453.00;;;;5030102;28;20724;-46
2022/01/16 05:39:50;;;;;;;5.20;4.70;;;17.00;53.50;17.40;101470.00;;;;5008920;28;20186;-48
2022/01/16 05:42:16;;;;;;;5.87;4.60;;;17.00;53.50;17.40;101461.00;;;;5027038;28;20198;-49
2022/01/16 05:44:41;;;;;;;7.07;5.17;;;17.00;53.60;17.40;101473.00;;;;5026687;28;20175;-49
2022/01/16 05:47:10;;;;;;;5.07;4.57;;;17.00;53.70;17.40;101471.00;;;;5027191;28;20253;-49
2022/01/16 05:49:36;;;;;;;5.43;4.90;;;16.90;53.80;17.40;101479.00;;;;5028292;28;20191;-46
2022/01/16 05:52:01;;;;;;;6.20;5.03;;;16.90;53.90;17.40;101483.00;;;;5030591;28;20602;-49
2022/01/16 05:54:27;;;;;;;5.23;4.73;;;16.90;54.10;17.40;101488.00;;;;5034565;28;20155;-49
2022/01/16 05:56:53;;;;;;;5.27;4.77;;;16.80;54.10;17.40;101486.00;;;;5033575;28;20203;-48
2022/01/16 05:59:18;;;;;;;5.43;4.83;;;16.80;54.10;17.40;101479.00;;;;5032286;28;20175;-47
2022/01/16 06:01:44;;;;;;;5.30;4.80;;;16.70;54.10;17.40;101477.00;;;;5027249;28;20175;-49
2022/01/16 06:04:10;;;;;;;6.03;5.17;;;16.70;54.20;17.40;101485.00;;;;5035404;28;20160;-49
2022/01/16 06:06:36;;;;;;;5.20;4.70;;;16.70;54.30;17.40;101476.00;;;;5045388;28;20191;-48
2022/01/16 06:09:01;;;;;;;5.73;5.23;;;16.60;54.30;17.40;101478.00;;;;5030947;28;20198;-49
2022/01/16 06:11:27;;;;;;;5.30;4.80;;;16.60;54.40;17.30;101474.00;;;;5032375;28;20607;-47
2022/01/16 06:13:53;;;;;;;5.27;4.77;;;16.50;54.50;17.30;101475.00;;;;5031847;28;20186;-48
2022/01/16 06:16:18;;;;;;;5.40;4.60;;;16.50;54.60;17.30;101462.00;;;;5026545;28;20191;-48
2022/01/16 06:18:44;;;;;;;5.00;4.50;;;16.50;54.60;17.30;101467.00;;;;5027849;28;20646;-47
2022/01/16 06:21:10;;;;;;;5.80;5.30;;;16.40;54.60;17.20;101470.00;;;;5027199;28;20268;-46
2022/01/16 06:23:35;;;;;;;5.30;4.80;;;16.40;54.70;17.20;101463.00;;;;5026962;28;20190;-48
2022/01/16 06:26:01;;;;;;;5.60;5.10;;;16.40;54.80;17.20;101467.00;;;;5025511;28;20195;-47
2022/01/16 06:28:31;;;;;;;5.33;4.87;;;16.40;54.80;17.20;101474.00;;;;5027154;28;20280;-48
2022/01/16 06:30:58;;;;;;;5.47;4.97;;;16.30;54.80;17.20;101464.00;;;;5027117;28;20175;-47
2022/01/16 06:33:24;;;;;;;5.87;5.27;;;16.30;54.80;17.10;101471.00;;;;5027225;28;20258;-50
2022/01/16 06:35:50;;;;;;;5.03;4.53;;;16.20;54.80;17.10;101471.00;;;;5029427;28;20214;-48
2022/01/16 06:38:16;;;;;;;4.90;4.50;;;16.20;54.90;17.10;101471.00;;;;5030543;28;20253;-48
2022/01/16 06:40:41;;;;;;;5.47;4.97;;;16.20;55.00;17.10;101476.00;;;;5030480;28;20201;-48
2022/01/16 06:43:07;;;;;;;5.60;5.10;;;16.10;54.90;17.00;101478.00;;;;5029857;28;20423;-55
2022/01/16 06:45:33;;;;;;;5.60;5.10;;;16.10;55.00;17.00;101491.00;;;;5029662;28;20179;-48
2022/01/16 06:47:58;;;;;;;5.53;5.03;;;16.10;55.10;17.00;101423.00;;;;5029321;28;20186;-48
2022/01/16 06:50:24;;;;;;;5.60;5.10;;;16.00;55.00;17.00;101489.00;;;;5030440;28;20178;-47
2022/01/16 06:52:50;;;;;;;5.73;5.23;;;16.00;55.00;16.90;101483.00;;;;5028509;28;20519;-49
2022/01/16 06:55:15;;;;;;;5.37;4.90;;;16.00;55.10;16.90;101490.00;;;;5029360;28;20202;-49
2022/01/16 06:57:41;;;;;;;5.60;5.00;;;16.10;55.10;17.00;101493.00;;;;5034780;28;20214;-48
2022/01/16 07:00:08;;;;;;;5.80;5.30;;;16.20;54.80;17.00;101494.00;;;;5030007;28;20542;-48
2022/01/16 07:02:34;;;;;;;6.03;5.43;;;16.50;54.20;17.10;101494.00;;;;5030059;28;20182;-48
2022/01/16 07:05:02;;;;;;;5.27;4.87;;;16.90;53.80;17.30;101504.00;;;;5029292;28;20171;-47
2022/01/16 07:07:27;;;;;;;5.60;5.10;;;17.10;53.20;17.40;101499.00;;;;5029591;28;20203;-49
2022/01/16 07:09:53;;;;;;;5.40;4.90;;;17.40;52.90;17.60;101510.00;;;;5029528;28;20205;-47
2022/01/16 07:12:19;;;;;;;5.13;4.73;;;17.50;52.60;17.70;101507.00;;;;5029138;28;20198;-48
2022/01/16 07:14:44;;;;;;;5.37;4.97;;;17.60;52.60;17.80;101506.00;;;;5028581;28;20178;-49
2022/01/16 07:17:10;;;;;;;5.07;4.67;;;17.60;52.60;17.80;101508.00;;;;5028960;28;20195;-48
2022/01/16 07:19:36;;;;;;;5.27;4.87;;;17.60;52.60;17.90;101514.00;;;;5029607;28;20177;-48
2022/01/16 07:22:02;;;;;;;5.57;5.07;;;17.60;52.60;17.90;101515.00;;;;5029688;28;20186;-47
2022/01/16 07:24:27;;;;;;;5.37;4.93;;;17.70;52.70;18.00;101519.00;;;;5029115;28;20450;-48
2022/01/16 07:26:54;;;;;;;5.40;5.00;;;17.60;52.70;18.00;101532.00;;;;5029226;28;20202;-48
2022/01/16 07:29:21;;;;;;;5.40;4.90;;;17.60;52.80;18.00;101541.00;;;;5031112;28;20219;-48
2022/01/16 07:31:47;;;;;;;5.33;4.93;;;17.60;52.90;18.00;101535.00;;;;5031328;28;20170;-49
2022/01/16 07:34:12;;;;;;;5.10;4.70;;;17.50;52.90;18.00;101531.00;;;;5029166;28;20187;-48
2022/01/16 07:36:38;;;;;;;5.20;4.80;;;17.50;53.10;18.00;101531.00;;;;5028465;28;20587;-47
2022/01/16 07:39:04;;;;;;;5.57;5.07;;;17.40;53.10;18.00;101549.00;;;;5029301;28;20179;-47
2022/01/16 07:41:30;;;;;;;5.40;4.90;;;17.40;53.20;18.00;101547.00;;;;5028870;28;20183;-46
2022/01/16 07:43:56;;;;;;;5.10;4.70;;;17.40;53.30;18.00;101546.00;;;;5028994;28;20510;-47
2022/01/16 07:46:21;;;;;;;5.10;4.70;;;17.40;53.30;18.00;101527.00;;;;5026511;28;20206;-47
2022/01/16 07:48:47;;;;;;;5.43;5.03;;;17.30;53.50;17.70;101545.00;;;;5027688;28;20234;-48
2022/01/16 07:51:13;;;;;;;5.60;5.10;;;17.20;53.50;18.00;101558.00;;;;5030991;28;20201;-50
2022/01/16 07:53:39;;;;;;;5.67;5.17;;;17.20;53.50;17.90;101535.00;;;;5053617;28;20179;-51
2022/01/16 07:56:04;;;;;;;5.50;5.00;;;17.20;53.70;17.90;101538.00;;;;5053065;28;20383;-49
2022/01/16 07:58:30;;;;;;;4.77;4.37;;;17.10;53.60;17.90;101564.00;;;;5039601;28;20190;-48
2022/01/16 08:00:56;;;;;;;5.20;4.80;;;17.10;53.80;17.90;101568.00;;;;5047735;28;20155;-50
2022/01/16 08:03:23;;;;;;;5.00;4.60;;;17.10;53.80;17.90;101564.00;;;;5040410;28;20182;-47
2022/01/16 08:05:48;;;;;;;5.30;4.80;;;17.00;53.90;17.80;101555.00;;;;5029809;28;20206;-49
2022/01/16 08:08:14;;;;;;;5.10;4.70;;;17.00;53.90;17.80;101558.00;;;;5030289;28;20179;-48
2022/01/16 08:10:40;;;;;;;5.10;4.70;;;16.90;54.00;17.80;101563.00;;;;5030880;28;20179;-47
2022/01/16 08:13:06;;;;;;;5.77;5.27;;;16.90;54.10;17.80;101557.00;;;;5028911;28;20203;-47
2022/01/16 08:15:31;;;;;;;5.27;4.77;;;16.90;54.20;17.70;101560.00;;;;5028259;28;20178;-50
2022/01/16 08:17:57;;;;;;;5.00;4.60;;;16.80;54.10;17.70;101552.00;;;;5030558;28;20171;-48
2022/01/16 08:20:23;;;;;;;5.23;4.73;;;16.80;54.10;17.70;101568.00;;;;5031002;28;20650;-51
2022/01/16 08:22:49;;;;;;;5.43;4.93;;;16.80;54.10;17.70;101568.00;;;;5029499;28;20201;-48
2022/01/16 08:25:14;;;;;;;5.23;4.83;;;16.70;54.10;17.60;101551.00;;;;5028076;28;20691;-48
2022/01/16 08:27:40;;;;;;;5.20;4.80;;;16.60;54.20;17.60;101561.00;;;;5027790;28;20734;-48
2022/01/16 08:30:07;;;;;;;5.30;4.80;;;16.70;54.40;17.60;101569.00;;;;5027991;28;20254;-48
2022/01/16 08:32:32;;;;;;;5.63;5.13;;;16.60;54.40;17.60;101573.00;;;;5028179;28;20653;-50
2022/01/16 08:34:59;;;;;;;5.33;4.83;;;16.60;54.40;17.50;101568.00;;;;5027359;28;20181;-48
2022/01/16 08:37:25;;;;;;;4.90;4.50;;;16.60;54.40;17.50;101565.00;;;;5028055;28;20203;-48
2022/01/16 08:39:53;;;;;;;5.53;5.03;;;16.50;54.40;17.50;101576.00;;;;5027572;28;20179;-48
2022/01/16 08:42:18;;;;;;;5.27;4.87;;;16.40;54.40;17.40;101580.00;;;;5026084;28;20207;-48
2022/01/16 08:44:44;;;;;;;5.37;4.80;;;16.40;54.50;17.40;101576.00;;;;5025862;28;20186;-46
2022/01/16 08:47:10;;;;;;;5.50;5.00;;;16.40;54.50;17.40;101576.00;;;;5027258;28;20195;-46
2022/01/16 08:49:35;;;;;;;5.20;4.80;;;16.40;54.60;17.40;101575.00;;;;5027060;28;20281;-47
2022/01/16 08:52:02;;;;;;;5.30;4.90;;;16.30;54.50;17.30;101586.00;;;;5026595;28;20195;-48
2022/01/16 08:54:28;;;;;;;5.47;4.97;;;16.30;55.20;17.30;101594.00;;;;5026269;28;20175;-47
2022/01/16 08:56:54;;;;;;;5.37;4.97;;;16.30;54.70;17.30;101600.00;;;;5027981;28;20453;-46
2022/01/16 08:59:20;;;;;;;5.07;4.67;;;16.20;54.60;17.30;101602.00;;;;5028060;28;20251;-47
2022/01/16 09:01:45;;;;;;;5.43;4.97;;;16.20;54.60;17.30;101608.00;;;;5026167;28;20683;-47
2022/01/16 09:04:11;;;;;;;5.63;5.13;;;16.20;54.70;17.20;101613.00;;;;5027012;28;20377;-47
2022/01/16 09:06:38;;;;;;;5.50;5.07;;;16.10;54.60;17.20;101616.00;;;;5026599;28;20210;-48
2022/01/16 09:09:04;;;;;;;5.50;5.00;;;16.10;54.70;17.20;101614.00;;;;5025940;28;20766;-45
2022/01/16 09:11:30;;;;;;;5.20;4.70;;;16.10;54.70;17.10;101615.00;;;;5025914;28;20179;-51
2022/01/16 09:13:58;;;;;;;7.60;5.00;;;16.10;54.90;17.10;101612.00;;;;5026464;28;20229;-46
2022/01/16 09:16:24;;;;;;;8.07;5.00;;;16.10;55.10;17.10;101619.00;;;;5026296;28;20293;-47
2022/01/16 09:18:50;;;;;;;5.50;5.00;;;16.30;55.30;17.20;101623.00;;;;5027034;28;20288;-47
2022/01/16 09:21:16;;;;;;;6.43;5.17;;;16.60;54.50;17.30;101621.00;;;;5022224;28;20278;-47
2022/01/16 09:23:44;;;;;;;5.40;4.90;;;16.90;54.00;17.50;101621.00;;;;5023279;28;20183;-47
2022/01/16 09:26:12;;;;;;;6.67;5.53;;;17.20;53.60;17.60;101634.00;;;;5047531;28;20206;-46
2022/01/16 09:28:37;;;;;;;7.00;5.53;;;17.50;53.10;17.70;101634.00;;;;5048114;28;20202;-47
2022/01/16 09:31:05;;;;;;;5.60;5.10;;;17.70;52.70;17.90;101632.00;;;;5048435;28;20538;-46
2022/01/16 09:33:30;;;;;;;13.40;5.10;;;17.80;52.50;18.00;101648.00;;;;5048230;28;20174;-47
2022/01/16 09:35:56;;;;;;;6.60;4.80;;;18.00;52.40;18.10;101632.00;;;;5046693;28;20631;-47
2022/01/16 09:38:22;;;;;;;5.17;4.73;;;18.10;52.30;18.20;101638.00;;;;5028165;28;20547;-49
2022/01/16 09:40:48;;;;;;;5.27;4.60;;;18.10;52.30;18.30;101643.00;;;;5028096;28;20171;-47
2022/01/16 09:43:14;;;;;;;6.33;4.80;;;18.20;52.20;18.40;101631.00;;;;5013004;28;20657;-47
2022/01/16 09:45:40;;;;;;;5.67;5.07;;;18.20;52.10;18.50;101638.00;;;;4989585;28;20447;-45
2022/01/16 09:48:06;;;;;;;5.70;5.10;;;18.30;52.20;18.50;101641.00;;;;5028365;28;20179;-49
2022/01/16 09:50:32;;;;;;;6.10;4.80;;;18.30;52.30;18.60;101634.00;;;;5022976;28;20179;-45
2022/01/16 09:53:03;;;;;;;5.10;4.50;;;18.30;52.20;18.60;101654.00;;;;5029405;28;20156;-49
2022/01/16 09:55:29;;;;;;;5.30;4.90;;;18.30;52.30;18.70;101654.00;;;;5019945;28;20192;-49
2022/01/16 09:57:55;;;;;;;5.00;4.50;;;18.30;52.30;18.70;101654.00;;;;5010457;28;20218;-50
2022/01/16 10:00:21;;;;;;;4.63;4.23;;;18.30;52.40;18.70;101648.00;;;;5009216;28;20179;-47
2022/01/16 10:02:47;;;;;;;6.40;4.73;;;18.30;52.50;18.70;101652.00;;;;5010627;28;20283;-49
2022/01/16 10:05:37;;;;;;;5.30;4.53;;;18.20;52.60;18.70;101655.00;;;;5007237;28;20183;-48
2022/01/16 10:08:05;;;;;;;13.17;4.90;;;18.20;52.60;18.70;101651.00;;;;5011557;28;20750;-48
2022/01/16 10:10:33;;;;;;;11.63;5.43;;;18.20;52.80;18.70;101653.00;;;;5010371;28;20209;-49
2022/01/16 10:13:07;;;;;;;15.90;6.00;;;18.20;53.10;18.70;101646.00;;;;5014254;28;20173;-50
2022/01/16 10:15:33;;;;;;;14.97;5.40;;;18.10;53.20;18.70;101650.00;;;;5034201;28;20168;-50
2022/01/16 10:18:01;;;;;;;11.73;5.33;;;18.10;53.20;18.70;101664.00;;;;4993239;28;20270;-49
2022/01/16 10:20:27;;;;;;;10.17;5.60;;;18.10;53.20;18.70;101663.00;;;;5011378;28;20201;-46
2022/01/16 10:22:59;;;;;;;14.03;5.27;;;18.10;53.10;18.70;101655.00;;;;5019579;28;20259;-48
2022/01/16 10:25:45;;;;;;;9.07;5.53;;;18.00;53.20;18.70;101658.00;;;;5016796;28;20164;-49
2022/01/16 10:28:20;;;;;;;12.50;5.57;;;18.00;53.20;18.70;101655.00;;;;5015369;28;20726;-48
2022/01/16 10:30:57;;;;;;;8.33;5.33;;;18.00;53.40;18.70;101660.00;;;;5011744;28;20252;-48
2022/01/16 10:33:25;;;;;;;11.50;5.63;;;18.00;53.40;18.70;101659.00;;;;5017309;28;20259;-47
2022/01/16 10:35:53;;;;;;;10.77;5.27;;;18.00;53.50;18.70;101647.00;;;;5014943;28;20193;-50
2022/01/16 10:38:29;;;;;;;12.33;5.60;;;17.90;53.40;18.70;101644.00;;;;5012033;28;20627;-47
2022/01/16 10:40:57;;;;;;;10.23;5.33;;;17.90;53.50;18.70;101649.00;;;;5011332;28;20164;-48
2022/01/16 10:43:44;;;;;;;10.70;5.17;;;17.90;53.50;18.70;101654.00;;;;5012191;28;20160;-48
2022/01/16 10:46:11;;;;;;;8.47;5.23;;;17.90;53.50;18.60;101651.00;;;;5046127;28;20199;-50
2022/01/16 10:48:37;;;;;;;6.43;5.13;;;18.00;53.60;18.60;101646.00;;;;5051334;28;20297;-48
2022/01/16 10:51:03;;;;;;;12.97;5.20;;;18.00;53.50;18.70;101665.00;;;;5050968;28;20171;-49
2022/01/16 10:53:31;;;;;;;11.60;5.03;;;17.90;53.70;18.70;101657.00;;;;5050116;28;20611;-49
2022/01/16 10:56:04;;;;;;;9.10;5.07;;;18.10;53.90;18.70;101649.00;;;;5037765;28;20568;-49
2022/01/16 10:58:38;;;;;;;9.37;5.60;;;18.10;53.70;18.70;101656.00;;;;5013287;28;20225;-50
2022/01/16 11:01:13;;;;;;;6.70;5.10;;;18.20;53.40;18.80;101652.00;;;;5029978;28;20625;-50
2022/01/16 11:03:45;;;;;;;10.50;5.23;;;18.30;53.40;18.80;101657.00;;;;5030860;28;20162;-49
2022/01/16 11:06:11;;;;;;;8.30;5.13;;;18.30;53.30;18.80;101655.00;;;;5030414;28;20345;-50
2022/01/16 11:08:38;;;;;;;10.70;5.50;;;18.40;53.40;18.90;101658.00;;;;5030402;28;20194;-49
2022/01/16 11:11:03;;;;;;;9.27;5.20;;;18.40;53.80;18.90;101663.00;;;;5030395;28;20172;-48
2022/01/16 11:13:33;;;;;;;17.23;5.77;;;18.40;53.80;18.90;101675.00;;;;5030312;28;20171;-49
2022/01/16 11:16:04;;;;;;;16.47;6.17;;;18.40;53.90;18.90;101663.00;;;;5030066;28;20200;-49
2022/01/16 11:18:32;;;;;;;13.20;6.40;;;18.40;54.00;19.00;101663.00;;;;5030740;28;20191;-50
2022/01/16 11:26:03;;;;;;;17.20;6.47;;;18.30;54.60;19.00;101678.00;;;;5031252;28;20572;-49